createdAt,value
2023-04-26T12:33:17.539Z,43.78
2023-04-26T12:35:47.699Z,43.46
2023-04-26T12:38:18.735Z,43.19
2023-04-26T12:40:47.886Z,43.67
2023-04-26T12:43:17.302Z,43.29
2023-04-26T12:45:47.509Z,43.00
2023-04-26T12:48:17.336Z,43.84
2023-04-26T12:50:47.826Z,43.68
2023-04-26T12:53:18.097Z,45.15
2023-04-26T12:55:47.392Z,45.65
2023-04-26T12:58:16.769Z,45.93
2023-04-26T13:00:47.071Z,46.35
2023-04-26T13:03:22.955Z,46.66
2023-04-26T13:05:54.570Z,46.66
2023-04-26T13:08:26.450Z,46.91
2023-04-26T13:10:58.130Z,46.98
2023-04-26T13:13:42.160Z,47.68
2023-04-26T13:16:13.635Z,48.00
2023-04-26T13:18:43.056Z,47.95
2023-04-26T13:21:12.729Z,47.84
2023-04-26T13:23:42.168Z,48.33
2023-04-26T13:26:14.592Z,48.62
2023-04-26T13:28:47.017Z,48.58
2023-04-26T13:31:17.124Z,48.64
2023-04-26T13:33:48.633Z,48.64
2023-04-26T13:36:21.759Z,48.62
2023-04-26T13:38:52.798Z,48.74
2023-04-26T13:41:23.400Z,48.93
2023-04-26T13:43:55.359Z,49.41
2023-04-26T13:46:25.084Z,49.73
2023-04-26T13:48:55.192Z,49.97
2023-04-26T13:51:26.656Z,50.28
2023-04-26T13:53:56.355Z,50.63
2023-04-26T13:56:27.290Z,51.14
2023-04-26T13:58:57.615Z,51.24
2023-04-26T14:01:27.538Z,51.28
2023-04-26T14:03:58.200Z,51.56
2023-04-26T14:06:28.339Z,51.64
2023-04-26T14:08:58.006Z,51.76
2023-04-26T14:11:27.678Z,51.86
2023-04-26T14:13:58.415Z,52.19
2023-04-26T14:16:28.205Z,52.30
2023-04-26T14:18:59.173Z,52.81
2023-04-26T14:21:28.297Z,52.92
2023-04-26T14:23:57.561Z,53.32
2023-04-26T14:26:27.198Z,53.55
2023-04-26T14:28:57.027Z,53.59
2023-04-26T14:31:27.567Z,53.99
2023-04-26T14:33:56.927Z,54.04
2023-04-26T14:36:27.573Z,54.27
2023-04-26T14:38:56.744Z,54.78
2023-04-26T14:41:26.088Z,54.87
2023-04-26T14:43:55.572Z,55.25
2023-04-26T14:46:24.821Z,55.47
2023-04-26T14:48:54.776Z,55.62
2023-04-26T14:51:23.888Z,55.77
2023-04-26T14:53:53.370Z,55.57
2023-04-26T14:56:23.221Z,55.45
2023-04-26T14:58:52.459Z,55.73
2023-04-26T15:01:21.599Z,55.65
2023-04-26T15:03:50.947Z,55.72
2023-04-26T15:06:20.781Z,55.80
2023-04-26T15:08:50.882Z,55.86
2023-04-26T15:11:20.562Z,55.97
2023-04-26T15:13:49.841Z,56.07
2023-04-26T15:16:19.415Z,56.32
2023-04-26T15:18:48.544Z,55.79
2023-04-26T15:21:18.927Z,55.24
2023-04-26T15:23:49.064Z,55.11
2023-04-26T15:26:18.803Z,55.06
2023-04-26T15:28:48.544Z,54.99
2023-04-26T15:31:17.767Z,54.98
2023-04-26T15:33:48.493Z,54.88
2023-04-26T15:36:21.407Z,54.92
2023-04-26T15:38:51.298Z,54.72
2023-04-26T15:41:20.657Z,54.81
2023-04-26T15:43:55.762Z,54.74
2023-04-26T15:46:25.720Z,54.79
2023-04-26T15:48:55.411Z,54.86
2023-04-26T15:51:24.611Z,54.81
2023-04-26T15:53:55.572Z,54.88
2023-04-26T15:56:25.777Z,55.05
2023-04-26T15:58:56.677Z,54.94
2023-04-26T16:01:29.494Z,55.19
2023-04-26T16:03:59.732Z,55.40
2023-04-26T16:06:33.408Z,55.94
2023-04-26T16:09:17.260Z,56.24
2023-04-26T16:11:53.989Z,56.28
2023-04-26T16:14:23.628Z,56.96
2023-04-26T16:16:52.953Z,57.09
2023-04-26T16:19:27.557Z,57.36
2023-04-26T16:21:58.932Z,57.72
2023-04-26T16:24:29.359Z,58.20
2023-04-26T16:26:58.627Z,58.22
2023-04-26T16:29:30.367Z,58.44
2023-04-26T16:32:00.279Z,58.98
2023-04-26T16:34:30.240Z,59.31
2023-04-26T16:36:59.745Z,59.38
2023-04-26T16:39:29.374Z,59.88
2023-04-26T16:41:58.675Z,59.99
2023-04-26T16:44:28.392Z,60.12
2023-04-26T16:46:58.704Z,60.31
2023-04-26T16:49:29.269Z,60.51
2023-04-26T16:52:01.306Z,60.53
2023-04-26T16:54:30.746Z,60.69
2023-04-26T16:57:00.221Z,60.42
2023-04-26T16:59:30.334Z,60.47
2023-04-26T17:02:30.047Z,60.24
2023-04-26T17:04:59.986Z,60.61
2023-04-26T17:07:30.177Z,60.42
2023-04-26T17:10:07.469Z,60.72
2023-04-26T17:12:36.866Z,60.72
2023-04-26T17:15:08.270Z,60.71
2023-04-26T17:17:38.390Z,60.89
2023-04-26T17:20:13.618Z,60.92
2023-04-26T17:22:44.355Z,61.02
2023-04-26T17:25:14.934Z,61.05
2023-04-26T17:27:46.430Z,61.07
2023-04-26T17:30:18.766Z,61.09
2023-04-26T17:32:48.216Z,61.20
2023-04-26T17:35:17.348Z,61.24
2023-04-26T17:37:49.334Z,61.20
2023-04-26T17:40:19.288Z,61.40
2023-04-26T17:42:48.457Z,61.33
2023-04-26T17:45:26.480Z,61.56
2023-04-26T17:47:58.260Z,61.40
2023-04-26T17:50:35.777Z,61.53
2023-04-26T17:53:06.325Z,61.50
2023-04-26T17:55:37.440Z,61.39
2023-04-26T17:58:14.852Z,61.38
2023-04-26T18:00:46.295Z,61.18
2023-04-26T18:03:20.765Z,61.17
2023-04-26T18:05:58.504Z,61.26
2023-04-26T18:08:30.297Z,61.27
2023-04-26T18:11:02.866Z,61.24
2023-04-26T18:13:33.825Z,61.25
2023-04-26T18:16:17.537Z,61.36
2023-04-26T18:18:51.386Z,61.47
2023-04-26T18:21:21.853Z,61.50
2023-04-26T18:23:53.659Z,61.56
2023-04-26T18:26:25.906Z,61.53
2023-04-26T18:28:57.856Z,61.69
2023-04-26T18:31:31.138Z,61.54
2023-04-26T18:34:02.084Z,61.72
2023-04-26T18:36:32.199Z,61.51
2023-04-26T18:39:01.532Z,61.52
2023-04-26T18:41:35.556Z,61.35
2023-04-26T18:44:20.324Z,61.35
2023-04-26T18:46:55.178Z,61.31
2023-04-26T18:49:26.835Z,61.05
2023-04-26T18:51:58.004Z,61.07
2023-04-26T18:54:27.384Z,60.97
2023-04-26T18:56:57.378Z,60.88
2023-04-26T18:59:27.603Z,60.88
2023-04-26T19:02:01.211Z,60.92
2023-04-26T19:04:42.303Z,61.23
2023-04-26T19:07:18.354Z,61.17
2023-04-26T19:09:54.771Z,61.33
2023-04-26T19:12:26.925Z,61.42
2023-04-26T19:14:57.230Z,61.41
2023-04-26T19:17:40.756Z,61.52
2023-04-26T19:20:13.631Z,61.70
2023-04-26T19:22:54.168Z,61.74
2023-04-26T19:25:34.076Z,61.74
2023-04-26T19:28:03.992Z,61.88
2023-04-26T19:30:37.070Z,62.01
2023-04-26T19:33:09.431Z,62.05
2023-04-26T19:35:39.372Z,62.02
2023-04-26T19:38:11.437Z,61.95
2023-04-26T19:40:44.062Z,62.14
2023-04-26T19:45:00.829Z,62.18
2023-04-26T19:46:59.193Z,62.25
2023-04-26T19:49:31.170Z,62.05
2023-04-26T19:52:02.776Z,61.87
2023-04-26T19:54:35.430Z,61.75
2023-04-26T19:57:05.050Z,61.52
2023-04-26T19:59:45.470Z,61.58
2023-04-26T20:02:15.485Z,61.65
2023-04-26T20:04:46.368Z,61.63
2023-04-26T20:07:16.421Z,61.62
2023-04-26T20:09:46.131Z,61.44
2023-04-26T20:12:16.491Z,61.47
2023-04-26T20:14:47.218Z,61.50
2023-04-26T20:17:16.557Z,61.43
2023-04-26T20:20:11.632Z,61.49
2023-04-26T20:22:41.727Z,61.74
2023-04-26T20:25:13.367Z,61.77
2023-04-26T20:27:43.909Z,61.74
2023-04-26T20:30:14.321Z,61.97
2023-04-26T20:32:46.768Z,62.10
2023-04-26T20:35:16.779Z,62.06
2023-04-26T20:37:47.951Z,62.23
2023-04-26T20:40:21.864Z,62.25
2023-04-26T20:42:52.156Z,62.22
2023-04-26T20:45:22.495Z,62.22
2023-04-26T20:47:54.435Z,61.89
2023-04-26T20:50:26.036Z,61.82
2023-04-26T20:52:56.114Z,61.73
2023-04-26T20:55:30.844Z,61.62
2023-04-26T20:58:02.128Z,61.56
2023-04-26T21:00:31.954Z,61.36
2023-04-26T21:03:01.365Z,61.33
2023-04-26T21:05:34.188Z,61.26
2023-04-26T21:08:04.388Z,61.09
2023-04-26T21:10:34.415Z,61.07
2023-04-26T21:13:06.215Z,60.69
2023-04-26T21:15:36.685Z,60.49
2023-04-26T21:18:10.099Z,60.33
2023-04-26T21:20:39.583Z,60.28
2023-04-26T21:23:09.160Z,60.37
2023-04-26T21:25:39.398Z,60.20
2023-04-26T21:28:09.996Z,60.30
2023-04-26T21:30:41.360Z,60.38
2023-04-26T21:33:11.922Z,60.32
2023-04-26T21:35:41.573Z,60.37
2023-04-26T21:38:11.253Z,60.40
2023-04-26T21:40:42.994Z,60.30
2023-04-26T21:43:15.528Z,60.13
2023-04-26T21:45:44.885Z,60.09
2023-04-26T21:48:14.100Z,60.07
2023-04-26T21:50:43.494Z,59.97
2023-04-26T21:53:12.845Z,59.87
2023-04-26T21:55:42.050Z,59.89
2023-04-26T21:58:11.271Z,59.70
2023-04-26T22:00:40.603Z,59.71
2023-04-26T22:03:09.827Z,59.67
2023-04-26T22:05:39.350Z,59.75
2023-04-26T22:08:08.829Z,59.65
2023-04-26T22:10:38.323Z,59.68
2023-04-26T22:13:07.733Z,59.60
2023-04-26T22:15:37.964Z,59.37
2023-04-26T22:18:10.382Z,59.36
2023-04-26T22:20:39.584Z,59.41
2023-04-26T22:23:09.363Z,59.21
2023-04-26T22:25:38.918Z,59.17
2023-04-26T22:28:08.264Z,59.23
2023-04-26T22:30:37.558Z,59.16
2023-04-26T22:33:06.995Z,59.14
2023-04-26T22:35:36.571Z,59.13
2023-04-26T22:38:06.131Z,59.08
2023-04-26T22:40:35.808Z,59.06
2023-04-26T22:43:05.092Z,59.10
2023-04-26T22:45:34.734Z,59.10
2023-04-26T22:48:06.072Z,58.89
2023-04-26T22:50:39.557Z,58.82
2023-04-26T22:53:09.053Z,58.72
2023-04-26T22:55:39.370Z,58.70
2023-04-26T22:58:08.734Z,58.61
2023-04-26T23:00:38.057Z,58.54
2023-04-26T23:03:07.544Z,58.46
2023-04-26T23:05:37.589Z,58.43
2023-04-26T23:08:07.446Z,58.43
2023-04-26T23:10:38.290Z,58.22
2023-04-26T23:13:07.553Z,58.19
2023-04-26T23:15:37.032Z,58.05
2023-04-26T23:18:06.582Z,58.12
2023-04-26T23:20:36.268Z,58.04
2023-04-26T23:23:06.162Z,57.99
2023-04-26T23:25:35.689Z,57.82
2023-04-26T23:28:06.027Z,57.85
2023-04-26T23:30:35.726Z,57.82
2023-04-26T23:33:06.721Z,57.70
2023-04-26T23:35:41.654Z,57.65
2023-04-26T23:38:11.529Z,57.66
2023-04-26T23:40:40.604Z,57.51
2023-04-26T23:43:12.569Z,57.23
2023-04-26T23:45:46.934Z,57.16
2023-04-26T23:48:17.803Z,57.15
2023-04-26T23:50:47.122Z,57.16
2023-04-26T23:53:16.734Z,57.09
2023-04-26T23:55:46.554Z,57.09
2023-04-26T23:58:15.850Z,56.95
